createdAt,value
2022-12-06T00:00:03.760Z,11.35
2022-12-06T00:00:44.938Z,11.23
2022-12-06T00:01:19.042Z,11.27
2022-12-06T00:01:53.813Z,11.05
2022-12-06T00:02:25.975Z,11.48
2022-12-06T00:02:58.122Z,11.40
2022-12-06T00:03:32.955Z,10.80
2022-12-06T00:04:07.188Z,10.80
2022-12-06T00:04:41.912Z,11.20
2022-12-06T00:05:14.145Z,11.07
2022-12-06T00:05:46.688Z,10.98
2022-12-06T00:06:23.565Z,11.02
2022-12-06T00:06:55.958Z,10.75
2022-12-06T00:07:28.039Z,11.90
2022-12-06T00:08:00.235Z,10.18
2022-12-06T00:08:35.116Z,10.73
2022-12-06T00:09:08.124Z,12.10
2022-12-06T00:09:40.225Z,12.50
2022-12-06T00:10:17.804Z,9.80
2022-12-06T00:10:50.333Z,10.15
2022-12-06T00:11:25.169Z,10.98
2022-12-06T00:12:00.784Z,10.38
2022-12-06T00:12:32.858Z,10.43
2022-12-06T00:13:05.415Z,10.43
2022-12-06T00:13:40.924Z,10.30
2022-12-06T00:14:13.145Z,11.00
2022-12-06T00:14:45.270Z,9.90
2022-12-06T00:15:20.036Z,9.40
2022-12-06T00:15:52.189Z,10.65
2022-12-06T00:16:25.678Z,11.15
2022-12-06T00:17:00.448Z,10.35
2022-12-06T00:17:32.606Z,11.10
2022-12-06T00:18:04.798Z,10.65
2022-12-06T00:18:41.240Z,11.43
2022-12-06T00:19:15.595Z,10.25
2022-12-06T00:19:50.270Z,10.43
2022-12-06T00:20:22.403Z,10.60
2022-12-06T00:20:54.599Z,11.27
2022-12-06T00:21:31.356Z,9.70
2022-12-06T00:22:03.648Z,10.45
2022-12-06T00:22:38.426Z,10.73
2022-12-06T00:23:10.557Z,10.63
2022-12-06T00:23:44.681Z,10.65
2022-12-06T00:24:21.754Z,10.32
2022-12-06T00:24:53.944Z,11.57
2022-12-06T00:25:28.628Z,10.48
2022-12-06T00:26:03.750Z,10.88
2022-12-06T00:26:37.664Z,10.30
2022-12-06T00:27:09.864Z,10.80
2022-12-06T00:27:44.615Z,10.55
2022-12-06T00:28:17.135Z,10.48
2022-12-06T00:28:52.122Z,10.68
2022-12-06T00:29:27.251Z,10.15
2022-12-06T00:29:59.532Z,10.13
2022-12-06T00:30:31.805Z,10.60
2022-12-06T00:31:09.308Z,10.95
2022-12-06T00:31:41.656Z,10.35
2022-12-06T00:32:19.287Z,10.85
2022-12-06T00:32:54.432Z,10.57
2022-12-06T00:33:26.566Z,11.30
2022-12-06T00:33:59.303Z,10.77
2022-12-06T00:34:34.025Z,10.48
2022-12-06T00:35:07.303Z,11.18
2022-12-06T00:35:39.349Z,10.75
2022-12-06T00:36:12.884Z,9.77
2022-12-06T00:36:48.944Z,10.70
2022-12-06T00:37:21.081Z,11.00
2022-12-06T00:37:53.146Z,9.73
2022-12-06T00:38:28.600Z,10.70
2022-12-06T00:39:02.323Z,10.15
2022-12-06T00:39:34.426Z,10.07
2022-12-06T00:40:10.754Z,10.63
2022-12-06T00:40:45.524Z,10.10
2022-12-06T00:41:19.782Z,11.38
2022-12-06T00:41:57.466Z,11.35
2022-12-06T00:42:29.596Z,11.05
2022-12-06T00:43:01.812Z,10.68
2022-12-06T00:43:37.810Z,10.10
2022-12-06T00:44:11.112Z,12.43
2022-12-06T00:44:45.819Z,10.73
2022-12-06T00:45:17.942Z,10.45
2022-12-06T00:45:50.189Z,10.80
2022-12-06T00:46:27.333Z,10.32
2022-12-06T00:46:59.526Z,9.55
2022-12-06T00:47:31.631Z,9.98
2022-12-06T00:48:06.680Z,10.23
2022-12-06T00:48:38.940Z,11.23
2022-12-06T00:49:11.076Z,10.48
2022-12-06T00:49:45.766Z,11.10
2022-12-06T00:50:17.973Z,10.50
2022-12-06T00:50:50.424Z,10.30
2022-12-06T00:51:26.801Z,10.68
2022-12-06T00:51:58.896Z,10.55
2022-12-06T00:52:30.982Z,10.70
2022-12-06T00:53:05.962Z,9.88
2022-12-06T00:53:38.169Z,10.40
2022-12-06T00:54:16.938Z,10.30
2022-12-06T00:54:49.031Z,10.32
2022-12-06T00:55:21.127Z,10.90
2022-12-06T00:55:56.054Z,10.38
2022-12-06T00:56:30.807Z,10.20
2022-12-06T00:57:03.006Z,11.35
2022-12-06T00:57:35.100Z,9.90
2022-12-06T00:58:09.827Z,10.02
2022-12-06T00:58:42.486Z,9.98
2022-12-06T00:59:17.207Z,11.20
2022-12-06T00:59:49.437Z,10.05
2022-12-06T01:00:21.659Z,10.52
2022-12-06T01:00:56.421Z,10.02
2022-12-06T01:01:33.581Z,10.82
2022-12-06T01:02:09.682Z,10.30
2022-12-06T01:02:41.909Z,9.60
2022-12-06T01:03:14.783Z,10.10
2022-12-06T01:03:48.093Z,11.07
2022-12-06T01:04:22.831Z,10.95
2022-12-06T01:04:55.094Z,10.75
2022-12-06T01:05:27.628Z,9.88
2022-12-06T01:06:07.143Z,10.82
2022-12-06T01:06:39.344Z,10.98
2022-12-06T01:07:11.464Z,9.88
2022-12-06T01:07:46.241Z,10.13
2022-12-06T01:08:19.339Z,10.02
2022-12-06T01:08:51.477Z,9.90
2022-12-06T01:09:26.157Z,10.75
2022-12-06T01:09:58.620Z,10.35
2022-12-06T01:10:31.091Z,10.82
2022-12-06T01:11:08.781Z,10.32
2022-12-06T01:11:40.989Z,10.60
2022-12-06T01:12:13.084Z,10.57
2022-12-06T01:12:47.750Z,10.10
2022-12-06T01:13:19.877Z,10.70
2022-12-06T01:13:52.962Z,10.35
2022-12-06T01:14:28.035Z,10.93
2022-12-06T01:15:00.193Z,9.60
2022-12-06T01:15:32.354Z,9.85
2022-12-06T01:16:09.451Z,9.15
2022-12-06T01:16:41.784Z,10.20
2022-12-06T01:17:16.509Z,10.95
2022-12-06T01:17:48.639Z,11.63
2022-12-06T01:18:21.399Z,10.48
2022-12-06T01:18:58.527Z,10.02
2022-12-06T01:19:30.593Z,10.63
2022-12-06T01:20:03.241Z,10.70
2022-12-06T01:20:37.931Z,10.68
2022-12-06T01:21:14.906Z,10.55
2022-12-06T01:21:48.835Z,10.43
2022-12-06T01:22:23.509Z,11.20
2022-12-06T01:22:55.598Z,11.13
2022-12-06T01:23:27.705Z,11.13
2022-12-06T01:24:02.525Z,11.32
2022-12-06T01:24:34.629Z,11.07
2022-12-06T01:25:07.352Z,12.07
2022-12-06T01:25:42.038Z,11.43
2022-12-06T01:26:19.404Z,11.02
2022-12-06T01:26:54.305Z,10.52
2022-12-06T01:27:26.553Z,10.23
2022-12-06T01:27:58.701Z,12.07
2022-12-06T01:28:30.825Z,10.90
2022-12-06T01:29:06.434Z,10.55
2022-12-06T01:29:39.926Z,11.13
2022-12-06T01:30:12.757Z,10.35
2022-12-06T01:30:44.919Z,10.10
2022-12-06T01:31:19.883Z,10.32
2022-12-06T01:31:52.076Z,10.13
2022-12-06T01:32:24.952Z,10.10
2022-12-06T01:32:59.610Z,10.90
2022-12-06T01:33:31.727Z,9.82
2022-12-06T01:34:03.838Z,9.95
2022-12-06T01:34:38.939Z,10.90
2022-12-06T01:35:11.156Z,10.70
2022-12-06T01:35:43.618Z,10.75
2022-12-06T01:36:22.207Z,10.55
2022-12-06T01:36:54.345Z,9.57
2022-12-06T01:37:26.442Z,10.77
2022-12-06T01:38:05.964Z,10.23
2022-12-06T01:38:38.441Z,9.95
2022-12-06T01:39:13.796Z,10.20
2022-12-06T01:39:46.104Z,10.60
2022-12-06T01:40:18.435Z,10.65
2022-12-06T01:40:53.421Z,10.23
2022-12-06T01:41:28.880Z,10.50
2022-12-06T01:42:01.005Z,10.10
2022-12-06T01:42:35.707Z,10.40
2022-12-06T01:43:29.759Z,10.20
2022-12-06T01:44:04.599Z,10.95
2022-12-06T01:44:43.327Z,9.98
2022-12-06T01:45:15.681Z,10.50
2022-12-06T01:45:50.493Z,10.20
2022-12-06T01:46:28.751Z,10.15
2022-12-06T01:47:03.694Z,10.02
2022-12-06T01:47:39.411Z,11.25
2022-12-06T01:48:11.677Z,9.05
2022-12-06T01:48:47.036Z,11.05
2022-12-06T01:49:23.778Z,11.35
2022-12-06T01:50:03.041Z,10.45
2022-12-06T01:50:38.118Z,10.25
2022-12-06T01:51:13.404Z,9.80
2022-12-06T01:51:53.801Z,10.32
2022-12-06T01:52:30.463Z,10.30
2022-12-06T01:53:07.199Z,10.75
2022-12-06T01:53:43.113Z,9.80
2022-12-06T01:54:17.523Z,10.25
2022-12-06T01:54:52.384Z,9.25
2022-12-06T01:55:28.937Z,9.20
2022-12-06T01:56:01.689Z,10.00
2022-12-06T01:56:40.105Z,9.05
2022-12-06T01:57:15.421Z,10.07
2022-12-06T01:57:48.932Z,8.88
2022-12-06T01:58:30.251Z,10.88
2022-12-06T01:59:02.561Z,9.23
2022-12-06T01:59:35.372Z,8.75
2022-12-06T02:00:11.733Z,10.40
2022-12-06T02:00:43.872Z,9.05
2022-12-06T02:01:16.276Z,9.70
2022-12-06T02:01:51.981Z,8.90
2022-12-06T02:02:24.382Z,9.68
2022-12-06T02:03:00.748Z,9.15
2022-12-06T02:03:36.480Z,9.57
2022-12-06T02:04:10.021Z,10.07
2022-12-06T02:04:43.740Z,10.15
2022-12-06T02:05:19.728Z,8.25
2022-12-06T02:05:52.585Z,8.70
2022-12-06T02:06:24.895Z,8.63
2022-12-06T02:07:01.732Z,9.30
2022-12-06T02:07:34.228Z,8.27
2022-12-06T02:08:09.916Z,8.55
2022-12-06T02:08:45.049Z,9.00
2022-12-06T02:09:18.726Z,7.75
2022-12-06T02:09:54.881Z,8.98
2022-12-06T02:10:27.914Z,9.05
2022-12-06T02:11:03.089Z,9.57
2022-12-06T02:11:40.421Z,7.55
2022-12-06T02:12:14.359Z,8.90
2022-12-06T02:12:49.421Z,8.02
2022-12-06T02:13:25.165Z,8.57
2022-12-06T02:13:57.742Z,8.32
2022-12-06T02:14:36.012Z,8.13
2022-12-06T02:15:09.955Z,8.90
2022-12-06T02:15:56.596Z,9.20
2022-12-06T02:16:48.268Z,8.70
2022-12-06T02:17:33.700Z,8.25
2022-12-06T02:18:16.553Z,8.13
2022-12-06T02:18:54.386Z,7.60
2022-12-06T02:20:02.771Z,8.15
2022-12-06T02:20:41.824Z,8.38
2022-12-06T02:21:23.078Z,7.80
2022-12-06T02:22:09.071Z,7.75
2022-12-06T02:23:10.327Z,7.22
2022-12-06T02:24:15.081Z,7.57
2022-12-06T02:25:02.474Z,6.50
2022-12-06T02:26:16.278Z,7.28
2022-12-06T02:26:54.877Z,7.45
2022-12-06T02:27:54.306Z,7.28
2022-12-06T02:28:50.796Z,7.07
2022-12-06T02:29:54.959Z,6.78
2022-12-06T02:30:43.929Z,7.22
2022-12-06T02:31:26.005Z,7.82
2022-12-06T02:32:01.219Z,8.05
2022-12-06T02:32:36.971Z,8.18
2022-12-06T02:33:18.173Z,7.35
2022-12-06T02:33:53.257Z,8.00
2022-12-06T02:34:32.627Z,8.13
2022-12-06T02:35:15.110Z,7.45
2022-12-06T02:35:52.595Z,7.20
2022-12-06T02:36:39.866Z,7.68
2022-12-06T02:37:15.641Z,7.18
2022-12-06T02:37:56.425Z,7.15
2022-12-06T02:38:35.044Z,7.85
2022-12-06T02:39:12.004Z,7.65
2022-12-06T02:39:51.131Z,8.13
2022-12-06T02:40:27.364Z,8.30
2022-12-06T02:41:02.620Z,7.13
2022-12-06T02:41:42.264Z,7.55
2022-12-06T02:42:18.758Z,7.13
2022-12-06T02:42:55.937Z,7.13
2022-12-06T02:43:36.713Z,8.98
2022-12-06T02:44:17.658Z,7.13
2022-12-06T02:44:53.606Z,6.97
2022-12-06T02:45:31.858Z,7.50
2022-12-06T02:46:09.321Z,7.20
2022-12-06T02:46:43.918Z,7.43
2022-12-06T02:47:21.555Z,8.02
2022-12-06T02:47:56.546Z,8.32
2022-12-06T02:48:28.972Z,7.75
2022-12-06T02:49:06.758Z,7.40
2022-12-06T02:49:45.032Z,8.02
2022-12-06T02:50:20.070Z,7.70
2022-12-06T02:50:58.725Z,7.78
2022-12-06T02:51:34.646Z,7.93
2022-12-06T02:52:06.800Z,7.70
2022-12-06T02:52:45.202Z,9.57
2022-12-06T02:53:19.889Z,12.43
2022-12-06T02:53:54.505Z,11.50
2022-12-06T02:54:31.552Z,9.45
2022-12-06T02:55:05.036Z,9.60
2022-12-06T02:55:37.829Z,10.55
2022-12-06T02:56:12.690Z,10.93
2022-12-06T02:56:44.851Z,12.15
2022-12-06T02:57:19.628Z,10.52
2022-12-06T02:57:57.505Z,9.30
2022-12-06T02:58:34.669Z,9.15
2022-12-06T02:59:06.782Z,9.77
2022-12-06T02:59:41.451Z,9.57
2022-12-06T03:00:41.749Z,8.85
2022-12-06T03:01:22.918Z,9.25
2022-12-06T03:01:58.953Z,8.48
2022-12-06T03:02:37.344Z,8.45
2022-12-06T03:03:29.495Z,9.32
2022-12-06T03:04:31.612Z,7.65
2022-12-06T03:05:16.618Z,8.98
2022-12-06T03:06:17.893Z,7.13
2022-12-06T03:07:05.039Z,7.50
2022-12-06T03:07:42.777Z,9.73
2022-12-06T03:08:30.093Z,8.68
2022-12-06T03:09:13.589Z,8.73
2022-12-06T03:10:02.238Z,8.60
2022-12-06T03:10:41.283Z,8.65
2022-12-06T03:11:13.929Z,8.93
2022-12-06T03:11:58.513Z,10.15
2022-12-06T03:12:35.787Z,9.68
2022-12-06T03:13:15.519Z,8.70
2022-12-06T03:13:57.317Z,8.85
2022-12-06T03:14:39.381Z,9.45
2022-12-06T03:15:16.789Z,9.80
2022-12-06T03:15:59.149Z,9.25
2022-12-06T03:16:42.925Z,8.48
2022-12-06T03:17:24.000Z,9.38
2022-12-06T03:18:04.391Z,9.55
2022-12-06T03:18:46.458Z,10.20
2022-12-06T03:19:21.599Z,9.48
2022-12-06T03:19:58.907Z,9.20
2022-12-06T03:20:43.081Z,9.15
2022-12-06T03:21:19.773Z,9.90
2022-12-06T03:21:57.787Z,9.20
2022-12-06T03:22:40.015Z,8.60
2022-12-06T03:23:14.484Z,8.88
2022-12-06T03:23:49.559Z,9.23
2022-12-06T03:24:27.252Z,7.82
2022-12-06T03:25:00.978Z,8.50
2022-12-06T03:25:38.287Z,9.10
2022-12-06T03:26:14.601Z,8.10
2022-12-06T03:26:50.089Z,8.45
2022-12-06T03:27:27.032Z,8.73
2022-12-06T03:28:01.491Z,7.68
2022-12-06T03:28:39.221Z,8.75
2022-12-06T03:29:15.012Z,8.73
2022-12-06T03:29:52.066Z,9.10
2022-12-06T03:30:27.382Z,10.68
2022-12-06T03:31:04.550Z,8.52
2022-12-06T03:31:42.067Z,7.55
2022-12-06T03:32:20.626Z,8.93
2022-12-06T03:32:53.093Z,8.40
2022-12-06T03:33:30.914Z,8.10
2022-12-06T03:34:11.360Z,8.40
2022-12-06T03:35:23.489Z,8.18
2022-12-06T03:35:57.991Z,8.07
2022-12-06T03:36:32.103Z,9.35
2022-12-06T03:37:09.172Z,8.80
2022-12-06T03:37:47.198Z,8.27
2022-12-06T03:38:24.019Z,8.77
2022-12-06T03:39:03.061Z,9.10
2022-12-06T03:39:41.912Z,8.20
2022-12-06T03:40:19.502Z,8.85
2022-12-06T03:40:56.312Z,9.02
2022-12-06T03:41:36.543Z,9.57
2022-12-06T03:42:09.918Z,9.00
2022-12-06T03:42:44.848Z,8.52
2022-12-06T03:43:17.252Z,9.43
2022-12-06T03:43:49.710Z,9.40
2022-12-06T03:44:24.865Z,9.93
2022-12-06T03:44:57.406Z,9.20
2022-12-06T03:45:38.020Z,9.45
2022-12-06T03:46:17.766Z,9.10
2022-12-06T03:46:56.904Z,9.38
2022-12-06T03:47:35.317Z,9.73
2022-12-06T03:48:14.018Z,8.65
2022-12-06T03:48:50.062Z,8.48
2022-12-06T03:49:26.785Z,9.15
2022-12-06T03:50:05.386Z,9.15
2022-12-06T03:50:41.822Z,9.35
2022-12-06T03:51:20.936Z,8.45
2022-12-06T03:51:53.465Z,8.18
2022-12-06T03:52:25.766Z,8.85
2022-12-06T03:53:02.143Z,8.63
2022-12-06T03:53:34.499Z,8.27
2022-12-06T03:54:08.550Z,9.77
2022-12-06T03:54:44.197Z,9.73
2022-12-06T03:55:16.278Z,9.13
2022-12-06T03:55:48.468Z,8.75
2022-12-06T03:56:24.215Z,9.18
2022-12-06T03:56:56.360Z,10.18
2022-12-06T03:57:28.562Z,8.57
2022-12-06T03:58:03.288Z,9.60
2022-12-06T03:58:35.361Z,9.38
2022-12-06T03:59:08.613Z,9.75
2022-12-06T03:59:43.327Z,8.35
2022-12-06T04:00:16.801Z,8.95
2022-12-06T04:00:48.965Z,9.48
2022-12-06T04:01:23.796Z,9.00
2022-12-06T04:01:58.585Z,8.40
2022-12-06T04:02:30.825Z,8.75
2022-12-06T04:03:05.734Z,9.65
2022-12-06T04:03:37.980Z,8.80
2022-12-06T04:04:10.530Z,9.07
2022-12-06T04:04:45.359Z,10.07
2022-12-06T04:05:17.590Z,8.70
2022-12-06T04:05:49.888Z,8.60
2022-12-06T04:06:24.586Z,8.38
2022-12-06T07:13:04.696Z,18.98
2022-12-06T07:13:38.280Z,18.70
2022-12-06T07:14:13.025Z,20.30
2022-12-06T07:14:45.165Z,19.67
2022-12-06T07:15:17.544Z,19.70
2022-12-06T07:15:52.209Z,19.52
2022-12-06T07:16:24.415Z,17.35
2022-12-06T07:16:59.176Z,20.08
2022-12-06T07:17:31.386Z,17.55
2022-12-06T07:18:03.497Z,16.70
2022-12-06T07:18:38.170Z,20.85
2022-12-06T07:19:10.273Z,22.35
2022-12-06T07:19:42.371Z,19.33
2022-12-06T07:20:17.028Z,18.92
2022-12-06T07:20:49.954Z,17.90
2022-12-06T07:21:24.719Z,16.70
2022-12-06T07:21:56.802Z,20.98
2022-12-06T07:22:30.275Z,16.20
2022-12-06T07:23:05.169Z,17.17
2022-12-06T07:23:37.317Z,16.15
2022-12-06T07:24:11.997Z,17.65
2022-12-06T07:24:49.172Z,17.33
2022-12-06T07:25:26.996Z,17.58
2022-12-06T07:26:01.773Z,19.30
2022-12-06T07:26:36.474Z,18.67
2022-12-06T07:27:08.776Z,16.30
2022-12-06T07:27:43.570Z,19.75
2022-12-06T07:28:18.206Z,17.92
2022-12-06T07:28:51.593Z,17.35
2022-12-06T07:29:26.536Z,18.52
2022-12-06T07:29:59.814Z,17.33
2022-12-06T07:30:32.150Z,16.48
2022-12-06T07:31:13.807Z,15.75
2022-12-06T07:31:45.949Z,15.98
2022-12-06T07:32:20.624Z,16.20
2022-12-06T07:32:52.733Z,17.27
2022-12-06T07:33:24.840Z,17.33
2022-12-06T07:34:01.201Z,17.45
2022-12-06T07:34:33.574Z,15.50
2022-12-06T07:35:09.377Z,17.08
2022-12-06T07:36:10.841Z,16.05
2022-12-06T07:36:36.272Z,15.85
2022-12-06T07:37:08.685Z,15.90
2022-12-06T07:37:42.433Z,16.45
2022-12-06T07:38:17.155Z,16.20
2022-12-06T07:38:50.825Z,16.20
2022-12-06T07:39:26.734Z,15.60
2022-12-06T07:39:59.271Z,18.02
2022-12-06T07:41:02.860Z,18.17
2022-12-06T07:41:40.697Z,18.83
2022-12-06T07:42:36.995Z,14.82
2022-12-06T07:43:25.072Z,16.05
2022-12-06T07:44:16.145Z,18.58
2022-12-06T07:45:08.887Z,15.40
2022-12-06T07:45:43.606Z,16.20
2022-12-06T07:46:15.716Z,18.02
2022-12-06T07:46:48.848Z,18.67
2022-12-06T07:47:23.823Z,18.73
2022-12-06T07:47:55.909Z,16.92
2022-12-06T07:48:30.656Z,17.27
2022-12-06T07:49:02.852Z,17.50
2022-12-06T07:49:35.049Z,16.05
2022-12-06T07:50:17.530Z,18.35
2022-12-06T07:50:52.458Z,19.60
2022-12-06T07:51:24.566Z,17.83
2022-12-06T07:51:59.670Z,19.58
2022-12-06T07:52:33.044Z,15.82
2022-12-06T07:53:08.097Z,17.23
2022-12-06T07:53:40.228Z,16.00
2022-12-06T07:54:15.326Z,16.02
2022-12-06T07:54:47.402Z,16.60
2022-12-06T07:55:22.459Z,15.93
2022-12-06T07:55:54.515Z,18.45
2022-12-06T07:56:26.661Z,16.45
2022-12-06T07:57:01.387Z,18.75
2022-12-06T07:57:38.585Z,17.65
2022-12-06T07:58:16.492Z,20.55
2022-12-06T07:58:48.651Z,18.85
2022-12-06T07:59:23.447Z,18.90
2022-12-06T07:59:58.817Z,18.92
2022-12-06T08:00:31.128Z,16.23
2022-12-06T08:01:03.797Z,18.08
2022-12-06T08:01:38.613Z,18.98
2022-12-06T08:02:18.951Z,18.30
2022-12-06T08:02:53.703Z,16.08
2022-12-06T08:03:25.840Z,14.48
2022-12-06T08:03:59.850Z,17.27
2022-12-06T08:04:34.684Z,14.95
2022-12-06T08:05:07.749Z,14.43
2022-12-06T08:05:40.336Z,14.57
2022-12-06T08:06:15.072Z,15.63
2022-12-06T08:06:47.231Z,17.45
2022-12-06T08:07:22.523Z,15.52
2022-12-06T08:07:54.747Z,13.65
2022-12-06T08:08:29.183Z,17.23
2022-12-06T08:09:04.157Z,16.80
2022-12-06T08:09:36.323Z,16.30
2022-12-06T08:10:11.786Z,13.98
2022-12-06T08:10:43.874Z,14.77
2022-12-06T08:11:15.958Z,15.07
2022-12-06T08:11:50.629Z,14.30
2022-12-06T08:12:23.390Z,16.33
2022-12-06T08:12:58.163Z,14.40
2022-12-06T08:13:30.420Z,17.13
2022-12-06T08:14:02.888Z,14.75
2022-12-06T08:14:40.574Z,17.70
2022-12-06T08:15:13.332Z,15.88
2022-12-06T08:15:48.119Z,15.57
2022-12-06T08:16:20.370Z,17.98
2022-12-06T08:16:52.474Z,15.32
2022-12-06T08:17:27.180Z,14.07
2022-12-06T08:17:59.511Z,14.82
2022-12-06T08:18:32.031Z,14.57
2022-12-06T08:19:06.826Z,12.63
2022-12-06T08:19:39.014Z,13.63
2022-12-06T08:20:12.598Z,14.27
2022-12-06T08:20:47.398Z,13.95
2022-12-06T08:21:19.573Z,13.98
2022-12-06T08:21:54.373Z,14.23
2022-12-06T08:22:26.602Z,16.30
2022-12-06T08:22:58.710Z,14.63
2022-12-06T08:23:34.557Z,15.48
2022-12-06T08:24:07.553Z,13.23
2022-12-06T08:24:42.219Z,15.52
2022-12-06T08:25:14.391Z,15.73
2022-12-06T08:25:46.500Z,15.07
2022-12-06T08:26:21.453Z,16.10
2022-12-06T08:26:53.710Z,18.15
2022-12-06T08:27:25.949Z,18.85
2022-12-06T08:28:00.643Z,16.08
2022-12-06T08:28:34.094Z,18.20
2022-12-06T08:29:09.021Z,19.42
2022-12-06T08:29:45.455Z,14.73
2022-12-06T08:30:20.394Z,19.33
2022-12-06T08:30:52.826Z,17.58
2022-12-06T08:31:25.191Z,15.80
2022-12-06T08:31:59.998Z,19.05
2022-12-06T08:32:32.137Z,17.70
2022-12-06T08:33:04.316Z,16.55
2022-12-06T08:33:39.409Z,17.58
2022-12-06T08:34:12.638Z,16.30
2022-12-06T08:34:47.688Z,17.13
2022-12-06T08:35:19.773Z,15.65
2022-12-06T08:35:52.458Z,15.52
2022-12-06T08:36:27.867Z,18.73
2022-12-06T08:37:03.307Z,18.63
2022-12-06T08:37:38.529Z,18.85
2022-12-06T08:38:10.753Z,15.75
2022-12-06T08:38:43.438Z,17.75
2022-12-06T08:39:18.237Z,16.83
2022-12-06T08:39:50.322Z,18.25
2022-12-06T08:40:22.815Z,18.75
2022-12-06T08:40:57.539Z,19.90
2022-12-06T08:41:44.629Z,17.10
2022-12-06T08:42:22.045Z,16.27
2022-12-06T08:43:32.506Z,20.55
2022-12-06T08:44:05.435Z,17.75
2022-12-06T08:44:40.204Z,14.07
2022-12-06T08:45:15.012Z,16.05
2022-12-06T08:45:50.829Z,19.05
2022-12-06T08:46:23.465Z,18.38
2022-12-06T08:46:59.637Z,20.40
2022-12-06T08:47:32.009Z,17.80
2022-12-06T08:48:07.021Z,16.83
2022-12-06T08:48:42.993Z,14.13
2022-12-06T08:49:20.278Z,15.52
2022-12-06T08:49:52.424Z,15.32
2022-12-06T08:50:24.644Z,18.60
2022-12-06T08:50:59.312Z,16.20
2022-12-06T08:51:33.357Z,16.70
2022-12-06T08:52:08.126Z,17.55
2022-12-06T08:52:40.229Z,16.58
2022-12-06T08:53:12.303Z,17.25
2022-12-06T08:53:47.051Z,17.63
2022-12-06T08:54:22.063Z,17.45
2022-12-06T08:54:56.733Z,16.10
2022-12-06T08:55:28.893Z,19.33
2022-12-06T08:56:03.071Z,20.52
2022-12-06T08:56:39.897Z,19.13
2022-12-06T08:57:12.158Z,17.70
2022-12-06T08:57:46.833Z,18.05
2022-12-06T08:58:19.033Z,18.70
2022-12-06T08:58:55.890Z,19.00
2022-12-06T08:59:28.142Z,15.25
2022-12-06T09:00:03.181Z,21.20
2022-12-06T09:00:38.225Z,16.65
2022-12-06T09:01:12.854Z,18.75
2022-12-06T09:01:48.418Z,16.65
2022-12-06T09:02:20.626Z,15.65
2022-12-06T09:02:52.826Z,17.42
2022-12-06T09:03:28.146Z,16.02
2022-12-06T09:04:01.860Z,16.17
2022-12-06T09:04:36.745Z,17.17
2022-12-06T09:05:09.897Z,18.83
2022-12-06T09:05:42.201Z,14.48
2022-12-06T09:06:17.422Z,16.42
2022-12-06T09:06:50.201Z,15.77
2022-12-06T09:07:26.487Z,15.18
2022-12-06T09:07:58.647Z,16.58
2022-12-06T09:08:30.851Z,15.10
2022-12-06T09:09:05.612Z,15.52
2022-12-06T09:09:37.730Z,18.90
2022-12-06T09:10:13.653Z,14.73
2022-12-06T09:10:45.809Z,17.77
2022-12-06T09:11:18.993Z,17.25
2022-12-06T09:11:53.725Z,16.00
2022-12-06T09:12:26.106Z,16.67
2022-12-06T09:12:58.192Z,17.27
2022-12-06T09:13:33.136Z,16.27
2022-12-06T09:14:05.552Z,16.70
2022-12-06T09:14:40.527Z,16.42
2022-12-06T09:15:12.616Z,20.80
2022-12-06T09:15:47.419Z,15.50
2022-12-06T09:16:24.052Z,14.85
2022-12-06T09:16:56.350Z,17.67
2022-12-06T09:17:31.104Z,16.23
2022-12-06T09:18:03.195Z,14.98
2022-12-06T09:18:38.405Z,18.65
2022-12-06T09:19:11.360Z,17.15
2022-12-06T09:19:46.253Z,15.05
2022-12-06T09:20:18.549Z,16.27
2022-12-06T09:20:50.724Z,16.25
2022-12-06T09:21:28.993Z,15.18
2022-12-06T09:22:01.169Z,15.43
2022-12-06T09:22:35.945Z,17.58
2022-12-06T09:23:08.043Z,12.50
2022-12-06T09:23:42.787Z,11.38
2022-12-06T09:24:17.650Z,13.45
2022-12-06T09:24:52.443Z,13.95
2022-12-06T09:25:24.644Z,14.57
2022-12-06T09:25:56.772Z,12.95
2022-12-06T09:26:31.798Z,16.65
2022-12-06T09:27:04.047Z,15.50
2022-12-06T09:27:38.827Z,15.13
2022-12-06T09:28:11.942Z,15.05
2022-12-06T09:28:46.469Z,11.48
2022-12-06T09:29:22.070Z,14.57
2022-12-06T09:29:54.307Z,13.10
2022-12-06T09:30:26.867Z,11.50
2022-12-06T09:31:05.007Z,13.98
2022-12-06T09:31:39.580Z,12.10
2022-12-06T09:32:14.363Z,13.90
2022-12-06T09:32:48.377Z,17.27
2022-12-06T09:33:24.440Z,12.30
2022-12-06T09:33:56.763Z,13.73
2022-12-06T09:34:31.544Z,11.25
2022-12-06T09:35:04.152Z,11.82
2022-12-06T09:35:39.622Z,9.93
2022-12-06T09:36:15.284Z,12.15
2022-12-06T09:36:55.022Z,12.20
2022-12-06T09:37:27.550Z,11.60
2022-12-06T09:38:03.960Z,11.52
2022-12-06T09:38:38.603Z,10.85
2022-12-06T09:39:18.481Z,13.00
2022-12-06T09:39:55.865Z,10.52
2022-12-06T09:40:41.310Z,10.80
2022-12-06T09:41:30.441Z,10.88
2022-12-06T09:42:35.772Z,10.02
2022-12-06T09:43:24.363Z,11.23
2022-12-06T09:44:15.898Z,9.60
2022-12-06T09:45:10.670Z,11.27
2022-12-06T09:46:15.228Z,12.52
2022-12-06T09:47:00.122Z,10.65
2022-12-06T09:47:51.165Z,13.57
2022-12-06T09:48:49.264Z,11.82
2022-12-06T09:49:33.042Z,11.27
2022-12-06T09:50:15.426Z,12.75
2022-12-06T09:51:01.598Z,11.02
2022-12-06T09:51:48.669Z,14.63
2022-12-06T09:52:43.731Z,11.20
2022-12-06T09:53:24.001Z,10.65
2022-12-06T09:54:12.336Z,12.02
2022-12-06T09:55:08.721Z,11.85
2022-12-06T09:55:54.342Z,13.23
2022-12-06T09:56:39.035Z,10.70
2022-12-06T09:57:17.655Z,10.27
2022-12-06T09:58:00.057Z,11.77
2022-12-06T09:58:46.299Z,11.40
2022-12-06T09:59:32.513Z,10.82
2022-12-06T10:00:13.776Z,10.20
2022-12-06T10:00:56.685Z,12.65
2022-12-06T10:01:43.342Z,10.82
2022-12-06T10:02:35.323Z,11.88
2022-12-06T10:03:39.690Z,8.38
2022-12-06T10:04:40.941Z,9.95
2022-12-06T10:05:35.184Z,11.32
2022-12-06T10:06:14.823Z,11.05
2022-12-06T10:06:55.810Z,11.73
2022-12-06T10:07:37.497Z,12.18
2022-12-06T10:08:26.973Z,11.52
2022-12-06T16:25:57.623Z,13.32
2022-12-06T16:26:30.804Z,14.13
2022-12-06T16:27:05.261Z,13.27
2022-12-06T16:27:40.104Z,10.75
2022-12-06T16:28:13.698Z,13.45
2022-12-06T16:28:48.391Z,11.43
2022-12-06T16:29:23.692Z,18.42
2022-12-06T16:29:58.417Z,13.48
2022-12-06T16:30:34.667Z,14.15
2022-12-06T16:31:07.336Z,14.15
2022-12-06T16:31:42.400Z,13.50
2022-12-06T16:32:14.760Z,12.85
2022-12-06T16:32:46.967Z,11.57
2022-12-06T16:33:23.339Z,13.38
2022-12-06T16:33:56.895Z,12.63
2022-12-06T16:34:31.578Z,17.23
2022-12-06T16:35:04.306Z,13.75
2022-12-06T16:35:36.580Z,12.45
2022-12-06T16:36:21.114Z,15.07
2022-12-06T16:36:55.524Z,13.52
2022-12-06T16:37:27.615Z,15.55
2022-12-06T16:38:02.709Z,13.43
2022-12-06T16:38:35.248Z,15.75
2022-12-06T16:39:12.623Z,14.82
2022-12-06T16:39:44.742Z,14.93
2022-12-06T16:40:19.794Z,12.52
2022-12-06T16:41:02.191Z,13.32
2022-12-06T16:41:37.139Z,15.20
2022-12-06T16:42:11.941Z,15.35
2022-12-06T16:42:45.120Z,18.73
2022-12-06T16:43:17.214Z,15.27
2022-12-06T16:43:52.621Z,14.45
2022-12-06T16:44:25.038Z,14.82
2022-12-06T16:45:00.157Z,14.48
2022-12-06T16:45:35.460Z,15.10
2022-12-06T16:46:23.969Z,13.18
2022-12-06T16:46:56.604Z,15.77
2022-12-06T16:47:31.491Z,17.15
2022-12-06T16:48:03.848Z,15.55
2022-12-06T16:48:38.586Z,14.30
2022-12-06T16:49:44.815Z,15.73
2022-12-06T16:50:19.206Z,15.05
2022-12-06T16:50:51.317Z,13.73
2022-12-06T16:51:26.834Z,12.82
2022-12-06T16:51:59.028Z,15.95
2022-12-06T16:52:33.852Z,13.88
2022-12-06T16:53:06.111Z,17.35
2022-12-06T16:53:40.867Z,14.45
2022-12-06T16:54:13.116Z,16.13
2022-12-06T16:54:47.971Z,15.40
2022-12-06T16:55:20.553Z,14.93
2022-12-06T16:55:57.988Z,14.30
2022-12-06T16:56:31.092Z,16.98
2022-12-06T16:57:05.813Z,17.65
2022-12-06T16:57:38.316Z,18.60
2022-12-06T16:58:10.968Z,17.73
2022-12-06T16:58:45.763Z,17.23
2022-12-06T16:59:18.605Z,17.80
2022-12-06T16:59:53.277Z,18.65
2022-12-06T17:00:25.939Z,19.02
2022-12-06T17:01:05.036Z,18.60
2022-12-06T17:01:46.112Z,18.20
2022-12-06T17:02:29.495Z,16.58
2022-12-06T17:03:01.671Z,17.92
2022-12-06T17:03:33.832Z,16.60
2022-12-06T17:04:11.172Z,16.67
2022-12-06T17:04:43.425Z,15.60
2022-12-06T17:05:22.655Z,15.88
2022-12-06T17:05:54.783Z,17.90
2022-12-06T17:06:30.769Z,17.02
2022-12-06T17:07:02.888Z,15.52
2022-12-06T17:07:35.967Z,14.95
2022-12-06T17:08:11.135Z,16.45
2022-12-06T17:08:43.315Z,18.13
2022-12-06T17:09:18.119Z,15.82
2022-12-06T17:09:50.229Z,15.50
2022-12-06T17:10:25.175Z,16.13
2022-12-06T17:11:19.875Z,15.27
2022-12-06T17:12:06.448Z,16.20
2022-12-06T17:12:41.349Z,15.70
2022-12-06T17:13:13.726Z,16.17
2022-12-06T17:13:45.857Z,17.00